sensor_id;sensor_type;location;lat;lon;timestamp;P1;durP1;ratioP1;P2;durP2;ratioP2
79480;SDS011;68944;48.262;14.208;2023-05-10T00:00:10;9.80;;;3.80;;
79480;SDS011;68944;48.262;14.208;2023-05-10T00:02:40;8.18;;;3.60;;
79480;SDS011;68944;48.262;14.208;2023-05-10T00:05:05;9.85;;;3.80;;
79480;SDS011;68944;48.262;14.208;2023-05-10T00:07:31;8.75;;;3.60;;
79480;SDS011;68944;48.262;14.208;2023-05-10T00:09:57;8.38;;;3.67;;
79480;SDS011;68944;48.262;14.208;2023-05-10T00:12:22;8.35;;;4.05;;
79480;SDS011;68944;48.262;14.208;2023-05-10T00:14:48;10.68;;;4.47;;
79480;SDS011;68944;48.262;14.208;2023-05-10T00:17:13;8.95;;;3.80;;
79480;SDS011;68944;48.262;14.208;2023-05-10T00:19:39;12.27;;;4.28;;
79480;SDS011;68944;48.262;14.208;2023-05-10T00:22:05;9.82;;;4.20;;
79480;SDS011;68944;48.262;14.208;2023-05-10T00:24:30;10.38;;;3.85;;
79480;SDS011;68944;48.262;14.208;2023-05-10T00:26:55;10.20;;;3.75;;
79480;SDS011;68944;48.262;14.208;2023-05-10T00:29:21;10.57;;;3.90;;
79480;SDS011;68944;48.262;14.208;2023-05-10T00:31:46;10.35;;;4.10;;
79480;SDS011;68944;48.262;14.208;2023-05-10T00:34:12;11.30;;;3.67;;
79480;SDS011;68944;48.262;14.208;2023-05-10T00:36:37;8.05;;;3.50;;
79480;SDS011;68944;48.262;14.208;2023-05-10T00:39:03;9.60;;;3.95;;
79480;SDS011;68944;48.262;14.208;2023-05-10T00:41:29;8.90;;;3.53;;
79480;SDS011;68944;48.262;14.208;2023-05-10T00:43:58;13.13;;;5.28;;
79480;SDS011;68944;48.262;14.208;2023-05-10T00:46:24;13.68;;;6.47;;
79480;SDS011;68944;48.262;14.208;2023-05-10T00:48:51;13.55;;;4.95;;
79480;SDS011;68944;48.262;14.208;2023-05-10T00:51:17;9.25;;;4.05;;
79480;SDS011;68944;48.262;14.208;2023-05-10T00:53:46;9.65;;;3.55;;
79480;SDS011;68944;48.262;14.208;2023-05-10T00:56:12;10.98;;;3.83;;
79480;SDS011;68944;48.262;14.208;2023-05-10T00:58:38;7.30;;;3.30;;
79480;SDS011;68944;48.262;14.208;2023-05-10T01:01:04;9.15;;;3.63;;
79480;SDS011;68944;48.262;14.208;2023-05-10T01:03:31;22.92;;;10.60;;
79480;SDS011;68944;48.262;14.208;2023-05-10T01:05:57;19.55;;;9.07;;
79480;SDS011;68944;48.262;14.208;2023-05-10T01:08:23;12.38;;;4.72;;
79480;SDS011;68944;48.262;14.208;2023-05-10T01:10:50;9.55;;;4.18;;
79480;SDS011;68944;48.262;14.208;2023-05-10T01:13:23;9.77;;;3.88;;
79480;SDS011;68944;48.262;14.208;2023-05-10T01:15:54;8.13;;;3.60;;
79480;SDS011;68944;48.262;14.208;2023-05-10T01:18:20;10.77;;;3.65;;
79480;SDS011;68944;48.262;14.208;2023-05-10T01:20:47;7.40;;;3.38;;
79480;SDS011;68944;48.262;14.208;2023-05-10T01:29:11;9.52;;;4.38;;
79480;SDS011;68944;48.262;14.208;2023-05-10T01:32:05;9.98;;;4.63;;
79480;SDS011;68944;48.262;14.208;2023-05-10T01:34:35;9.63;;;3.55;;
79480;SDS011;68944;48.262;14.208;2023-05-10T01:37:11;7.63;;;3.45;;
79480;SDS011;68944;48.262;14.208;2023-05-10T01:42:59;8.43;;;4.75;;
79480;SDS011;68944;48.262;14.208;2023-05-10T01:45:41;10.10;;;4.85;;
79480;SDS011;68944;48.262;14.208;2023-05-10T01:48:10;10.10;;;4.68;;
79480;SDS011;68944;48.262;14.208;2023-05-10T01:50:38;8.02;;;3.50;;
79480;SDS011;68944;48.262;14.208;2023-05-10T01:53:07;7.35;;;3.42;;
79480;SDS011;68944;48.262;14.208;2023-05-10T01:55:37;9.02;;;3.67;;
79480;SDS011;68944;48.262;14.208;2023-05-10T01:58:10;8.20;;;3.47;;
79480;SDS011;68944;48.262;14.208;2023-05-10T02:00:44;7.28;;;3.60;;
79480;SDS011;68944;48.262;14.208;2023-05-10T02:03:11;7.72;;;3.55;;
79480;SDS011;68944;48.262;14.208;2023-05-10T02:05:37;8.02;;;3.42;;
79480;SDS011;68944;48.262;14.208;2023-05-10T02:08:05;10.20;;;3.65;;
79480;SDS011;68944;48.262;14.208;2023-05-10T02:10:32;7.00;;;3.40;;
79480;SDS011;68944;48.262;14.208;2023-05-10T02:13:00;7.75;;;3.42;;
79480;SDS011;68944;48.262;14.208;2023-05-10T02:15:27;9.00;;;4.13;;
79480;SDS011;68944;48.262;14.208;2023-05-10T02:17:55;7.88;;;3.35;;
79480;SDS011;68944;48.262;14.208;2023-05-10T02:20:22;7.15;;;3.05;;
79480;SDS011;68944;48.262;14.208;2023-05-10T02:22:50;8.50;;;3.50;;
79480;SDS011;68944;48.262;14.208;2023-05-10T02:25:18;12.10;;;3.60;;
79480;SDS011;68944;48.262;14.208;2023-05-10T02:27:46;6.78;;;2.88;;
79480;SDS011;68944;48.262;14.208;2023-05-10T02:30:12;7.57;;;3.30;;
79480;SDS011;68944;48.262;14.208;2023-05-10T02:32:38;16.73;;;7.90;;
79480;SDS011;68944;48.262;14.208;2023-05-10T02:35:05;15.95;;;4.45;;
79480;SDS011;68944;48.262;14.208;2023-05-10T02:37:32;7.65;;;3.50;;
79480;SDS011;68944;48.262;14.208;2023-05-10T02:39:58;6.57;;;2.92;;
79480;SDS011;68944;48.262;14.208;2023-05-10T02:42:26;7.15;;;2.92;;
79480;SDS011;68944;48.262;14.208;2023-05-10T02:44:53;6.68;;;2.88;;
79480;SDS011;68944;48.262;14.208;2023-05-10T02:47:24;9.27;;;2.97;;
79480;SDS011;68944;48.262;14.208;2023-05-10T02:49:49;7.55;;;2.95;;
79480;SDS011;68944;48.262;14.208;2023-05-10T02:52:16;7.55;;;3.20;;
79480;SDS011;68944;48.262;14.208;2023-05-10T02:54:48;10.23;;;3.47;;
79480;SDS011;68944;48.262;14.208;2023-05-10T02:57:16;8.38;;;4.13;;
79480;SDS011;68944;48.262;14.208;2023-05-10T02:59:45;19.85;;;8.20;;
79480;SDS011;68944;48.262;14.208;2023-05-10T03:02:14;14.25;;;5.70;;
79480;SDS011;68944;48.262;14.208;2023-05-10T03:04:39;8.40;;;3.80;;
79480;SDS011;68944;48.262;14.208;2023-05-10T03:07:05;6.78;;;2.90;;
79480;SDS011;68944;48.262;14.208;2023-05-10T03:09:31;36.10;;;18.80;;
79480;SDS011;68944;48.262;14.208;2023-05-10T03:12:07;9.98;;;4.60;;
79480;SDS011;68944;48.262;14.208;2023-05-10T03:17:32;7.57;;;3.65;;
79480;SDS011;68944;48.262;14.208;2023-05-10T03:20:06;9.93;;;3.85;;
79480;SDS011;68944;48.262;14.208;2023-05-10T03:22:37;9.52;;;3.72;;
79480;SDS011;68944;48.262;14.208;2023-05-10T03:25:06;7.32;;;3.22;;
79480;SDS011;68944;48.262;14.208;2023-05-10T03:27:36;7.90;;;3.40;;
79480;SDS011;68944;48.262;14.208;2023-05-10T03:30:05;8.23;;;4.03;;
79480;SDS011;68944;48.262;14.208;2023-05-10T03:32:34;9.98;;;3.70;;
79480;SDS011;68944;48.262;14.208;2023-05-10T03:35:00;8.30;;;3.88;;
79480;SDS011;68944;48.262;14.208;2023-05-10T03:37:27;26.55;;;12.95;;
79480;SDS011;68944;48.262;14.208;2023-05-10T03:39:52;10.85;;;4.70;;
79480;SDS011;68944;48.262;14.208;2023-05-10T03:42:18;9.50;;;4.20;;
79480;SDS011;68944;48.262;14.208;2023-05-10T03:44:44;12.18;;;4.50;;
79480;SDS011;68944;48.262;14.208;2023-05-10T03:47:09;10.77;;;4.40;;
79480;SDS011;68944;48.262;14.208;2023-05-10T03:49:35;8.20;;;4.10;;
79480;SDS011;68944;48.262;14.208;2023-05-10T03:52:01;9.70;;;3.95;;
79480;SDS011;68944;48.262;14.208;2023-05-10T03:54:26;9.40;;;3.30;;
79480;SDS011;68944;48.262;14.208;2023-05-10T03:56:52;9.80;;;3.85;;
79480;SDS011;68944;48.262;14.208;2023-05-10T03:59:18;9.40;;;3.40;;
79480;SDS011;68944;48.262;14.208;2023-05-10T04:01:44;8.60;;;3.22;;
79480;SDS011;68944;48.262;14.208;2023-05-10T04:04:09;8.10;;;3.47;;
79480;SDS011;68944;48.262;14.208;2023-05-10T04:06:35;7.90;;;4.13;;
79480;SDS011;68944;48.262;14.208;2023-05-10T04:09:00;8.10;;;4.05;;
79480;SDS011;68944;48.262;14.208;2023-05-10T04:11:29;10.82;;;3.72;;
79480;SDS011;68944;48.262;14.208;2023-05-10T04:13:54;8.05;;;3.90;;
79480;SDS011;68944;48.262;14.208;2023-05-10T04:16:20;10.60;;;4.35;;
79480;SDS011;68944;48.262;14.208;2023-05-10T04:18:45;8.82;;;3.85;;
79480;SDS011;68944;48.262;14.208;2023-05-10T04:21:12;14.30;;;6.50;;
79480;SDS011;68944;48.262;14.208;2023-05-10T04:23:38;16.83;;;7.28;;
79480;SDS011;68944;48.262;14.208;2023-05-10T04:26:04;12.57;;;5.90;;
79480;SDS011;68944;48.262;14.208;2023-05-10T04:28:29;11.13;;;4.30;;
79480;SDS011;68944;48.262;14.208;2023-05-10T04:31:04;9.13;;;4.53;;
79480;SDS011;68944;48.262;14.208;2023-05-10T04:33:31;10.80;;;4.07;;
79480;SDS011;68944;48.262;14.208;2023-05-10T04:35:58;8.07;;;4.00;;
79480;SDS011;68944;48.262;14.208;2023-05-10T04:38:23;10.10;;;3.83;;
79480;SDS011;68944;48.262;14.208;2023-05-10T04:40:49;9.38;;;4.05;;
79480;SDS011;68944;48.262;14.208;2023-05-10T04:43:15;9.52;;;3.20;;
79480;SDS011;68944;48.262;14.208;2023-05-10T04:45:40;9.18;;;3.53;;
79480;SDS011;68944;48.262;14.208;2023-05-10T04:48:06;9.23;;;4.10;;
79480;SDS011;68944;48.262;14.208;2023-05-10T04:50:32;8.48;;;4.20;;
79480;SDS011;68944;48.262;14.208;2023-05-10T04:52:58;7.82;;;3.97;;
79480;SDS011;68944;48.262;14.208;2023-05-10T04:55:23;9.70;;;4.35;;
79480;SDS011;68944;48.262;14.208;2023-05-10T04:57:49;8.82;;;4.00;;
79480;SDS011;68944;48.262;14.208;2023-05-10T05:00:15;12.35;;;4.30;;
79480;SDS011;68944;48.262;14.208;2023-05-10T05:02:44;9.40;;;4.32;;
79480;SDS011;68944;48.262;14.208;2023-05-10T05:07:39;12.73;;;7.53;;
79480;SDS011;68944;48.262;14.208;2023-05-10T05:10:05;10.52;;;5.05;;
79480;SDS011;68944;48.262;14.208;2023-05-10T05:12:32;8.57;;;4.57;;
79480;SDS011;68944;48.262;14.208;2023-05-10T05:14:57;10.77;;;4.70;;
79480;SDS011;68944;48.262;14.208;2023-05-10T05:17:23;9.45;;;4.45;;
79480;SDS011;68944;48.262;14.208;2023-05-10T05:19:48;21.83;;;10.55;;
79480;SDS011;68944;48.262;14.208;2023-05-10T05:22:14;14.88;;;6.68;;
79480;SDS011;68944;48.262;14.208;2023-05-10T05:24:39;10.68;;;5.57;;
79480;SDS011;68944;48.262;14.208;2023-05-10T05:27:05;10.00;;;5.13;;
79480;SDS011;68944;48.262;14.208;2023-05-10T05:29:31;19.45;;;4.80;;
79480;SDS011;68944;48.262;14.208;2023-05-10T05:31:56;10.93;;;4.47;;
79480;SDS011;68944;48.262;14.208;2023-05-10T05:34:22;12.02;;;4.28;;
79480;SDS011;68944;48.262;14.208;2023-05-10T05:36:48;20.08;;;10.05;;
79480;SDS011;68944;48.262;14.208;2023-05-10T05:39:13;15.35;;;6.25;;
79480;SDS011;68944;48.262;14.208;2023-05-10T05:41:39;12.50;;;5.03;;
79480;SDS011;68944;48.262;14.208;2023-05-10T05:44:04;11.43;;;4.65;;
79480;SDS011;68944;48.262;14.208;2023-05-10T05:46:30;15.10;;;4.88;;
79480;SDS011;68944;48.262;14.208;2023-05-10T05:48:55;10.20;;;4.45;;
79480;SDS011;68944;48.262;14.208;2023-05-10T05:51:21;10.07;;;4.45;;
79480;SDS011;68944;48.262;14.208;2023-05-10T05:53:47;18.55;;;4.47;;
79480;SDS011;68944;48.262;14.208;2023-05-10T05:56:12;9.63;;;4.50;;
79480;SDS011;68944;48.262;14.208;2023-05-10T05:58:38;10.45;;;4.65;;
79480;SDS011;68944;48.262;14.208;2023-05-10T06:01:03;12.63;;;4.38;;
79480;SDS011;68944;48.262;14.208;2023-05-10T06:03:29;13.23;;;6.32;;
79480;SDS011;68944;48.262;14.208;2023-05-10T06:05:54;10.02;;;4.95;;
79480;SDS011;68944;48.262;14.208;2023-05-10T06:08:20;9.48;;;4.85;;
79480;SDS011;68944;48.262;14.208;2023-05-10T06:10:45;12.88;;;4.85;;
79480;SDS011;68944;48.262;14.208;2023-05-10T06:13:11;12.70;;;4.95;;
79480;SDS011;68944;48.262;14.208;2023-05-10T06:15:37;9.90;;;4.93;;
79480;SDS011;68944;48.262;14.208;2023-05-10T06:18:03;12.20;;;6.63;;
79480;SDS011;68944;48.262;14.208;2023-05-10T06:20:28;15.20;;;7.15;;
79480;SDS011;68944;48.262;14.208;2023-05-10T06:22:54;12.38;;;5.43;;
79480;SDS011;68944;48.262;14.208;2023-05-10T06:25:19;10.23;;;5.03;;
79480;SDS011;68944;48.262;14.208;2023-05-10T06:27:45;19.17;;;5.05;;
79480;SDS011;68944;48.262;14.208;2023-05-10T06:30:10;9.40;;;4.95;;
79480;SDS011;68944;48.262;14.208;2023-05-10T06:32:38;9.40;;;4.95;;
79480;SDS011;68944;48.262;14.208;2023-05-10T06:35:03;8.88;;;4.82;;
79480;SDS011;68944;48.262;14.208;2023-05-10T06:37:29;10.43;;;5.20;;
79480;SDS011;68944;48.262;14.208;2023-05-10T06:39:55;12.98;;;5.50;;
79480;SDS011;68944;48.262;14.208;2023-05-10T06:42:20;11.27;;;5.70;;
79480;SDS011;68944;48.262;14.208;2023-05-10T06:44:46;12.05;;;5.70;;
79480;SDS011;68944;48.262;14.208;2023-05-10T06:47:11;11.35;;;5.38;;
79480;SDS011;68944;48.262;14.208;2023-05-10T06:49:37;14.52;;;5.90;;
79480;SDS011;68944;48.262;14.208;2023-05-10T06:52:02;11.60;;;6.45;;
79480;SDS011;68944;48.262;14.208;2023-05-10T06:54:28;14.20;;;7.07;;
79480;SDS011;68944;48.262;14.208;2023-05-10T06:56:53;15.02;;;7.85;;
79480;SDS011;68944;48.262;14.208;2023-05-10T06:59:19;16.33;;;8.23;;
79480;SDS011;68944;48.262;14.208;2023-05-10T07:01:46;15.40;;;7.72;;
79480;SDS011;68944;48.262;14.208;2023-05-10T07:04:12;12.95;;;6.97;;
79480;SDS011;68944;48.262;14.208;2023-05-10T07:06:37;12.07;;;6.28;;
79480;SDS011;68944;48.262;14.208;2023-05-10T07:09:03;12.43;;;6.40;;
79480;SDS011;68944;48.262;14.208;2023-05-10T07:11:28;14.48;;;5.93;;
79480;SDS011;68944;48.262;14.208;2023-05-10T07:13:54;11.63;;;5.78;;
79480;SDS011;68944;48.262;14.208;2023-05-10T07:16:19;12.65;;;6.13;;
79480;SDS011;68944;48.262;14.208;2023-05-10T07:18:46;13.35;;;6.53;;
79480;SDS011;68944;48.262;14.208;2023-05-10T07:21:12;11.68;;;6.75;;
79480;SDS011;68944;48.262;14.208;2023-05-10T07:23:37;12.18;;;6.15;;
79480;SDS011;68944;48.262;14.208;2023-05-10T07:26:02;15.00;;;6.28;;
79480;SDS011;68944;48.262;14.208;2023-05-10T07:28:28;14.10;;;6.05;;
79480;SDS011;68944;48.262;14.208;2023-05-10T07:30:54;10.75;;;5.60;;
79480;SDS011;68944;48.262;14.208;2023-05-10T07:33:19;15.90;;;7.30;;
79480;SDS011;68944;48.262;14.208;2023-05-10T07:35:45;12.30;;;6.03;;
79480;SDS011;68944;48.262;14.208;2023-05-10T07:38:10;15.13;;;5.80;;
79480;SDS011;68944;48.262;14.208;2023-05-10T07:40:36;11.18;;;5.65;;
79480;SDS011;68944;48.262;14.208;2023-05-10T07:43:02;12.80;;;5.68;;
79480;SDS011;68944;48.262;14.208;2023-05-10T07:45:27;12.88;;;5.97;;
79480;SDS011;68944;48.262;14.208;2023-05-10T07:47:53;13.07;;;5.90;;
79480;SDS011;68944;48.262;14.208;2023-05-10T07:50:19;10.73;;;5.47;;
79480;SDS011;68944;48.262;14.208;2023-05-10T07:52:46;11.10;;;5.30;;
79480;SDS011;68944;48.262;14.208;2023-05-10T07:55:12;11.02;;;5.45;;
79480;SDS011;68944;48.262;14.208;2023-05-10T07:57:37;12.82;;;5.63;;
79480;SDS011;68944;48.262;14.208;2023-05-10T08:00:03;11.75;;;5.20;;
79480;SDS011;68944;48.262;14.208;2023-05-10T08:02:38;12.35;;;5.70;;
79480;SDS011;68944;48.262;14.208;2023-05-10T08:05:04;9.93;;;5.35;;
79480;SDS011;68944;48.262;14.208;2023-05-10T08:07:30;14.15;;;5.28;;
79480;SDS011;68944;48.262;14.208;2023-05-10T08:09:56;12.55;;;5.20;;
79480;SDS011;68944;48.262;14.208;2023-05-10T08:12:21;15.70;;;6.35;;
79480;SDS011;68944;48.262;14.208;2023-05-10T08:14:47;11.20;;;6.10;;
79480;SDS011;68944;48.262;14.208;2023-05-10T08:17:12;17.60;;;6.72;;
79480;SDS011;68944;48.262;14.208;2023-05-10T08:19:38;13.48;;;6.53;;
79480;SDS011;68944;48.262;14.208;2023-05-10T08:22:03;11.52;;;6.07;;
79480;SDS011;68944;48.262;14.208;2023-05-10T08:24:28;12.82;;;6.15;;
79480;SDS011;68944;48.262;14.208;2023-05-10T08:26:54;10.55;;;5.55;;
79480;SDS011;68944;48.262;14.208;2023-05-10T08:29:19;11.73;;;6.43;;
79480;SDS011;68944;48.262;14.208;2023-05-10T08:31:45;11.73;;;6.32;;
79480;SDS011;68944;48.262;14.208;2023-05-10T08:34:10;15.05;;;6.38;;
79480;SDS011;68944;48.262;14.208;2023-05-10T08:36:36;24.02;;;7.80;;
79480;SDS011;68944;48.262;14.208;2023-05-10T08:39:01;16.17;;;7.32;;
79480;SDS011;68944;48.262;14.208;2023-05-10T08:41:27;15.52;;;7.75;;
79480;SDS011;68944;48.262;14.208;2023-05-10T08:43:55;15.20;;;7.85;;
79480;SDS011;68944;48.262;14.208;2023-05-10T08:46:21;16.00;;;8.68;;
79480;SDS011;68944;48.262;14.208;2023-05-10T08:48:48;16.98;;;7.50;;
79480;SDS011;68944;48.262;14.208;2023-05-10T08:51:17;19.33;;;8.50;;
79480;SDS011;68944;48.262;14.208;2023-05-10T08:53:45;17.38;;;8.38;;
79480;SDS011;68944;48.262;14.208;2023-05-10T08:56:11;18.83;;;8.82;;
79480;SDS011;68944;48.262;14.208;2023-05-10T08:58:37;17.92;;;9.32;;
79480;SDS011;68944;48.262;14.208;2023-05-10T09:01:03;21.63;;;9.45;;
79480;SDS011;68944;48.262;14.208;2023-05-10T09:03:30;18.38;;;9.25;;
79480;SDS011;68944;48.262;14.208;2023-05-10T09:05:56;19.73;;;9.55;;
79480;SDS011;68944;48.262;14.208;2023-05-10T09:08:22;16.58;;;8.77;;
79480;SDS011;68944;48.262;14.208;2023-05-10T09:10:50;13.45;;;7.68;;
79480;SDS011;68944;48.262;14.208;2023-05-10T09:13:16;17.40;;;8.63;;
79480;SDS011;68944;48.262;14.208;2023-05-10T09:15:43;15.68;;;7.60;;
79480;SDS011;68944;48.262;14.208;2023-05-10T09:18:10;14.75;;;7.60;;
79480;SDS011;68944;48.262;14.208;2023-05-10T09:20:35;13.77;;;6.60;;
79480;SDS011;68944;48.262;14.208;2023-05-10T09:23:01;11.02;;;5.60;;
79480;SDS011;68944;48.262;14.208;2023-05-10T09:25:26;12.48;;;5.47;;
79480;SDS011;68944;48.262;14.208;2023-05-10T09:27:52;12.43;;;5.90;;
79480;SDS011;68944;48.262;14.208;2023-05-10T09:30:27;11.88;;;6.60;;
79480;SDS011;68944;48.262;14.208;2023-05-10T09:32:54;13.60;;;7.22;;
79480;SDS011;68944;48.262;14.208;2023-05-10T09:35:22;15.32;;;8.48;;
79480;SDS011;68944;48.262;14.208;2023-05-10T09:37:52;16.15;;;8.93;;
79480;SDS011;68944;48.262;14.208;2023-05-10T09:40:21;16.65;;;9.43;;
79480;SDS011;68944;48.262;14.208;2023-05-10T09:42:55;16.50;;;9.60;;
79480;SDS011;68944;48.262;14.208;2023-05-10T09:45:24;17.85;;;9.27;;
79480;SDS011;68944;48.262;14.208;2023-05-10T09:47:51;16.48;;;10.43;;
79480;SDS011;68944;48.262;14.208;2023-05-10T09:50:17;26.15;;;15.27;;
79480;SDS011;68944;48.262;14.208;2023-05-10T09:52:51;23.92;;;15.27;;
79480;SDS011;68944;48.262;14.208;2023-05-10T09:55:21;25.65;;;13.98;;
79480;SDS011;68944;48.262;14.208;2023-05-10T09:57:48;23.45;;;14.65;;
79480;SDS011;68944;48.262;14.208;2023-05-10T10:02:55;23.02;;;13.70;;
79480;SDS011;68944;48.262;14.208;2023-05-10T10:05:28;23.55;;;16.00;;
79480;SDS011;68944;48.262;14.208;2023-05-10T10:07:56;23.27;;;16.20;;
79480;SDS011;68944;48.262;14.208;2023-05-10T10:10:23;24.23;;;15.82;;
79480;SDS011;68944;48.262;14.208;2023-05-10T10:12:50;32.45;;;20.25;;
79480;SDS011;68944;48.262;14.208;2023-05-10T10:15:16;31.33;;;20.45;;
79480;SDS011;68944;48.262;14.208;2023-05-10T10:17:42;33.75;;;21.00;;
79480;SDS011;68944;48.262;14.208;2023-05-10T10:20:08;32.53;;;20.85;;
79480;SDS011;68944;48.262;14.208;2023-05-10T10:22:34;29.58;;;18.60;;
79480;SDS011;68944;48.262;14.208;2023-05-10T10:25:01;29.10;;;19.02;;
79480;SDS011;68944;48.262;14.208;2023-05-10T10:30:04;33.15;;;21.90;;
79480;SDS011;68944;48.262;14.208;2023-05-10T10:35:19;29.17;;;18.77;;
79480;SDS011;68944;48.262;14.208;2023-05-10T10:37:45;29.80;;;21.35;;
79480;SDS011;68944;48.262;14.208;2023-05-10T10:40:31;25.70;;;19.35;;
79480;SDS011;68944;48.262;14.208;2023-05-10T10:43:20;23.90;;;16.17;;
79480;SDS011;68944;48.262;14.208;2023-05-10T10:48:38;23.27;;;15.93;;
79480;SDS011;68944;48.262;14.208;2023-05-10T10:51:04;24.73;;;15.35;;
79480;SDS011;68944;48.262;14.208;2023-05-10T10:53:29;17.55;;;12.93;;
79480;SDS011;68944;48.262;14.208;2023-05-10T10:56:11;18.25;;;12.20;;
79480;SDS011;68944;48.262;14.208;2023-05-10T10:58:40;22.13;;;14.82;;
79480;SDS011;68944;48.262;14.208;2023-05-10T11:01:16;19.73;;;13.30;;
79480;SDS011;68944;48.262;14.208;2023-05-10T11:06:33;18.90;;;12.68;;
79480;SDS011;68944;48.262;14.208;2023-05-10T11:09:10;22.25;;;14.25;;
79480;SDS011;68944;48.262;14.208;2023-05-10T11:11:51;24.38;;;15.35;;
79480;SDS011;68944;48.262;14.208;2023-05-10T11:14:20;24.05;;;16.27;;
79480;SDS011;68944;48.262;14.208;2023-05-10T11:16:50;23.08;;;15.88;;
79480;SDS011;68944;48.262;14.208;2023-05-10T11:19:16;24.25;;;15.63;;
79480;SDS011;68944;48.262;14.208;2023-05-10T11:21:50;27.00;;;18.30;;
79480;SDS011;68944;48.262;14.208;2023-05-10T11:24:20;37.88;;;26.58;;
79480;SDS011;68944;48.262;14.208;2023-05-10T11:26:49;31.30;;;22.27;;
79480;SDS011;68944;48.262;14.208;2023-05-10T11:29:16;27.17;;;20.00;;
79480;SDS011;68944;48.262;14.208;2023-05-10T11:31:42;28.25;;;19.08;;
79480;SDS011;68944;48.262;14.208;2023-05-10T11:34:09;26.95;;;18.88;;
79480;SDS011;68944;48.262;14.208;2023-05-10T11:36:35;24.75;;;18.35;;
79480;SDS011;68944;48.262;14.208;2023-05-10T11:39:01;26.90;;;18.83;;
79480;SDS011;68944;48.262;14.208;2023-05-10T11:41:28;25.88;;;17.63;;
79480;SDS011;68944;48.262;14.208;2023-05-10T11:43:55;22.85;;;15.18;;
79480;SDS011;68944;48.262;14.208;2023-05-10T11:46:24;19.13;;;14.15;;
79480;SDS011;68944;48.262;14.208;2023-05-10T11:48:53;15.35;;;9.20;;
79480;SDS011;68944;48.262;14.208;2023-05-10T11:51:24;12.07;;;7.45;;
79480;SDS011;68944;48.262;14.208;2023-05-10T11:53:51;12.35;;;6.68;;
79480;SDS011;68944;48.262;14.208;2023-05-10T11:56:18;13.95;;;6.18;;
79480;SDS011;68944;48.262;14.208;2023-05-10T11:58:44;9.85;;;6.18;;
79480;SDS011;68944;48.262;14.208;2023-05-10T12:01:10;10.48;;;6.13;;
79480;SDS011;68944;48.262;14.208;2023-05-10T12:03:36;12.00;;;6.53;;
79480;SDS011;68944;48.262;14.208;2023-05-10T12:06:02;12.80;;;6.93;;
79480;SDS011;68944;48.262;14.208;2023-05-10T12:08:29;9.82;;;6.55;;
79480;SDS011;68944;48.262;14.208;2023-05-10T12:11:06;10.68;;;6.35;;
79480;SDS011;68944;48.262;14.208;2023-05-10T12:13:37;10.48;;;6.68;;
79480;SDS011;68944;48.262;14.208;2023-05-10T12:16:25;13.80;;;6.70;;
79480;SDS011;68944;48.262;14.208;2023-05-10T12:18:54;12.48;;;6.43;;
79480;SDS011;68944;48.262;14.208;2023-05-10T12:21:22;11.35;;;6.82;;
79480;SDS011;68944;48.262;14.208;2023-05-10T12:23:52;10.98;;;6.75;;
79480;SDS011;68944;48.262;14.208;2023-05-10T12:26:22;11.23;;;6.40;;
79480;SDS011;68944;48.262;14.208;2023-05-10T12:28:48;10.95;;;6.85;;
79480;SDS011;68944;48.262;14.208;2023-05-10T12:31:13;12.93;;;6.85;;
79480;SDS011;68944;48.262;14.208;2023-05-10T12:33:40;9.93;;;6.20;;
79480;SDS011;68944;48.262;14.208;2023-05-10T12:36:08;11.30;;;6.93;;
79480;SDS011;68944;48.262;14.208;2023-05-10T12:38:38;12.75;;;7.43;;
79480;SDS011;68944;48.262;14.208;2023-05-10T12:41:08;16.13;;;7.35;;
79480;SDS011;68944;48.262;14.208;2023-05-10T12:43:35;10.85;;;7.32;;
79480;SDS011;68944;48.262;14.208;2023-05-10T12:46:08;11.88;;;7.18;;
79480;SDS011;68944;48.262;14.208;2023-05-10T12:48:36;13.45;;;7.97;;
79480;SDS011;68944;48.262;14.208;2023-05-10T12:51:02;11.43;;;7.43;;
79480;SDS011;68944;48.262;14.208;2023-05-10T12:53:29;12.80;;;7.78;;
79480;SDS011;68944;48.262;14.208;2023-05-10T12:55:55;12.05;;;7.57;;
79480;SDS011;68944;48.262;14.208;2023-05-10T12:58:21;15.57;;;7.95;;
79480;SDS011;68944;48.262;14.208;2023-05-10T13:00:46;12.35;;;7.55;;
79480;SDS011;68944;48.262;14.208;2023-05-10T13:03:12;12.60;;;7.80;;
79480;SDS011;68944;48.262;14.208;2023-05-10T13:05:38;12.38;;;7.47;;
79480;SDS011;68944;48.262;14.208;2023-05-10T13:08:03;11.55;;;7.63;;
79480;SDS011;68944;48.262;14.208;2023-05-10T13:10:30;13.20;;;7.95;;
79480;SDS011;68944;48.262;14.208;2023-05-10T13:12:57;12.82;;;7.63;;
79480;SDS011;68944;48.262;14.208;2023-05-10T13:15:25;12.60;;;8.27;;
79480;SDS011;68944;48.262;14.208;2023-05-10T13:17:51;17.38;;;10.52;;
79480;SDS011;68944;48.262;14.208;2023-05-10T13:20:19;22.42;;;14.27;;
79480;SDS011;68944;48.262;14.208;2023-05-10T13:22:44;21.38;;;12.85;;
79480;SDS011;68944;48.262;14.208;2023-05-10T13:25:10;20.35;;;9.85;;
79480;SDS011;68944;48.262;14.208;2023-05-10T13:27:37;13.05;;;7.80;;
79480;SDS011;68944;48.262;14.208;2023-05-10T13:30:06;12.77;;;7.53;;
79480;SDS011;68944;48.262;14.208;2023-05-10T13:32:36;13.40;;;7.20;;
79480;SDS011;68944;48.262;14.208;2023-05-10T13:35:02;10.90;;;7.22;;
79480;SDS011;68944;48.262;14.208;2023-05-10T13:37:32;14.25;;;8.02;;
79480;SDS011;68944;48.262;14.208;2023-05-10T13:40:00;18.48;;;10.32;;
79480;SDS011;68944;48.262;14.208;2023-05-10T13:42:26;12.55;;;7.35;;
79480;SDS011;68944;48.262;14.208;2023-05-10T13:44:52;11.35;;;6.88;;
79480;SDS011;68944;48.262;14.208;2023-05-10T13:47:17;16.75;;;8.63;;
79480;SDS011;68944;48.262;14.208;2023-05-10T13:49:43;15.52;;;9.15;;
79480;SDS011;68944;48.262;14.208;2023-05-10T13:52:08;17.65;;;8.30;;
79480;SDS011;68944;48.262;14.208;2023-05-10T13:54:38;11.85;;;7.57;;
79480;SDS011;68944;48.262;14.208;2023-05-10T13:57:03;13.77;;;8.20;;
79480;SDS011;68944;48.262;14.208;2023-05-10T13:59:29;13.23;;;8.50;;
79480;SDS011;68944;48.262;14.208;2023-05-10T14:01:57;16.00;;;8.75;;
79480;SDS011;68944;48.262;14.208;2023-05-10T14:04:27;12.55;;;7.32;;
79480;SDS011;68944;48.262;14.208;2023-05-10T14:06:53;11.18;;;6.38;;
79480;SDS011;68944;48.262;14.208;2023-05-10T14:09:19;12.82;;;7.10;;
79480;SDS011;68944;48.262;14.208;2023-05-10T14:11:45;12.15;;;7.13;;
79480;SDS011;68944;48.262;14.208;2023-05-10T14:14:11;14.85;;;9.40;;
79480;SDS011;68944;48.262;14.208;2023-05-10T14:16:37;12.60;;;7.50;;
79480;SDS011;68944;48.262;14.208;2023-05-10T14:19:03;15.32;;;7.90;;
79480;SDS011;68944;48.262;14.208;2023-05-10T14:21:28;16.88;;;9.68;;
79480;SDS011;68944;48.262;14.208;2023-05-10T14:23:57;13.60;;;8.07;;
79480;SDS011;68944;48.262;14.208;2023-05-10T14:26:22;12.82;;;8.18;;
79480;SDS011;68944;48.262;14.208;2023-05-10T14:28:48;13.73;;;8.18;;
79480;SDS011;68944;48.262;14.208;2023-05-10T14:31:13;12.98;;;8.27;;
79480;SDS011;68944;48.262;14.208;2023-05-10T14:33:39;13.60;;;8.65;;
79480;SDS011;68944;48.262;14.208;2023-05-10T14:36:06;12.15;;;7.07;;
79480;SDS011;68944;48.262;14.208;2023-05-10T14:38:32;12.30;;;7.50;;
79480;SDS011;68944;48.262;14.208;2023-05-10T14:40:57;12.30;;;7.60;;
79480;SDS011;68944;48.262;14.208;2023-05-10T14:43:23;12.45;;;8.57;;
79480;SDS011;68944;48.262;14.208;2023-05-10T14:45:49;13.40;;;7.80;;
79480;SDS011;68944;48.262;14.208;2023-05-10T14:48:14;12.10;;;7.80;;
79480;SDS011;68944;48.262;14.208;2023-05-10T14:50:42;11.32;;;7.30;;